Time;durP1;ratioP1;P1;durP2;ratioP2;P2;SDS_P1;SDS_P2;PMS_P1;PMS_P2;Temp;Humidity;BMP_temperature;BMP_pressure;BME280_temperature;BME280_humidity;BME280_pressure;Samples;Min_cycle;Max_cycle;Signal;HPM_P1;HPM_P2
2021/08/14 00:01:28;;;;;;;17.82;9.20;;;;;;;19.22;67.87;101013.66;1693064;81;27534;-79
2021/08/14 00:03:55;;;;;;;12.20;9.38;;;;;;;19.19;67.92;101014.94;1716331;81;25955;-78
2021/08/14 00:06:22;;;;;;;10.18;9.10;;;;;;;19.15;68.07;101018.34;1741162;81;25276;-78
2021/08/14 00:08:49;;;;;;;11.85;9.90;;;;;;;19.08;68.20;101014.38;1690071;81;25873;-78
2021/08/14 00:11:16;;;;;;;13.45;10.10;;;;;;;19.05;68.37;101009.95;1701289;81;27056;-78
2021/08/14 00:13:43;;;;;;;13.15;9.80;;;;;;;19.01;68.51;101010.13;1717558;81;28213;-78
2021/08/14 00:16:10;;;;;;;11.97;9.30;;;;;;;18.97;68.75;101007.02;1742220;81;25946;-78
2021/08/14 00:18:37;;;;;;;11.48;9.48;;;;;;;18.92;68.81;101012.34;1706696;81;26583;-78
2021/08/14 00:21:05;;;;;;;13.50;10.38;;;;;;;18.91;69.00;101007.11;1715735;81;26844;-78
2021/08/14 00:23:32;;;;;;;12.50;10.08;;;;;;;18.88;69.01;101007.59;1728092;81;25825;-78
2021/08/14 00:25:59;;;;;;;14.43;9.50;;;;;;;18.84;69.32;101004.49;1683859;83;27679;-78
2021/08/14 00:28:26;;;;;;;13.05;10.10;;;;;;;18.81;69.50;101005.50;1686882;81;25862;-78
2021/08/14 00:30:53;;;;;;;12.53;10.90;;;;;;;18.79;69.67;101002.19;1689027;83;25355;-78
2021/08/14 00:33:20;;;;;;;13.53;11.03;;;;;;;18.76;69.64;100998.56;1725466;81;26513;-78
2021/08/14 00:35:47;;;;;;;11.97;10.20;;;;;;;18.72;69.83;101002.28;1756570;81;25719;-78
2021/08/14 00:38:14;;;;;;;11.48;10.25;;;;;;;18.71;69.89;100997.09;1684360;81;27257;-78
2021/08/14 00:40:41;;;;;;;14.20;10.53;;;;;;;18.68;69.95;100994.82;1698332;81;25912;-79
2021/08/14 00:43:08;;;;;;;18.87;10.43;;;;;;;18.65;70.03;100995.30;1724816;81;25952;-79
2021/08/14 00:45:42;;;;;;;12.60;10.23;;;;;;;18.63;70.21;100989.25;1723189;81;26572;-79
2021/08/14 00:48:09;;;;;;;11.05;9.85;;;;;;;18.58;70.25;100983.18;1716752;81;26113;-78
2021/08/14 00:50:38;;;;;;;15.03;10.55;;;;;;;18.57;70.49;100987.45;1698063;81;27512;-78
2021/08/14 00:53:06;;;;;;;12.90;9.88;;;;;;;18.54;70.42;100990.64;1721542;81;25894;-78
2021/08/14 00:55:34;;;;;;;13.83;10.10;;;;;;;18.53;70.62;100980.31;1722041;81;26728;-78
2021/08/14 00:58:01;;;;;;;10.32;9.20;;;;;;;18.53;70.62;100988.45;1741945;81;25831;-78
2021/08/14 01:00:28;;;;;;;12.33;9.70;;;;;;;18.53;70.74;100986.27;1714700;81;25283;-78
2021/08/14 01:02:56;;;;;;;13.18;9.53;;;;;;;18.53;70.87;100982.20;1699438;81;27533;-78
2021/08/14 01:05:23;;;;;;;14.13;10.53;;;;;;;18.53;71.04;100982.20;1741899;81;25918;-78
2021/08/14 01:07:52;;;;;;;14.78;10.80;;;;;;;18.52;71.19;100982.72;1686612;80;25675;-78
2021/08/14 01:10:20;;;;;;;12.35;10.10;;;;;;;18.53;71.22;100986.27;1692324;81;26058;-79
2021/08/14 01:12:50;;;;;;;11.83;9.85;;;;;;;18.51;71.23;100972.94;1725574;81;25767;-78
2021/08/14 01:15:17;;;;;;;11.80;9.50;;;;;;;18.52;71.45;100973.77;1745056;81;27613;-78
2021/08/14 01:17:44;;;;;;;13.13;10.05;;;;;;;18.50;71.45;100971.27;1691130;81;26228;-79
2021/08/14 01:20:14;;;;;;;11.88;9.53;;;;;;;18.48;71.47;100972.86;1685655;83;26565;-78
2021/08/14 01:22:41;;;;;;;12.15;9.93;;;;;;;18.47;71.60;100969.03;1744353;81;25879;-79
2021/08/14 01:25:10;;;;;;;11.35;9.10;;;;;;;18.46;71.76;100968.19;1721676;81;26163;-78
2021/08/14 01:27:41;;;;;;;9.95;8.83;;;;;;;18.44;71.78;100963.53;1635263;83;27527;-78
2021/08/14 01:30:11;;;;;;;10.93;9.75;;;;;;;18.43;71.91;100956.41;1646557;83;25872;-78
2021/08/14 01:32:38;;;;;;;13.25;9.50;;;;;;;18.40;72.07;100950.62;1679287;83;25865;-79
2021/08/14 01:35:07;;;;;;;11.73;9.88;;;;;;;18.39;72.14;100951.14;1688723;84;26620;-78
2021/08/14 01:37:34;;;;;;;11.90;10.58;;;;;;;18.38;72.17;100950.86;1659901;83;25875;-78
2021/08/14 01:40:04;;;;;;;16.23;12.20;;;;;;;18.36;72.25;100952.97;1646808;83;27593;-78
2021/08/14 01:42:31;;;;;;;15.80;11.80;;;;;;;18.32;72.35;100956.36;1675856;83;25693;-79
2021/08/14 01:44:58;;;;;;;16.05;11.38;;;;;;;18.25;72.26;100946.13;1695042;83;25872;-79
2021/08/14 01:47:25;;;;;;;14.43;11.48;;;;;;;18.19;72.41;100955.17;1662872;83;25937;-78
2021/08/14 01:49:52;;;;;;;15.28;12.23;;;;;;;18.13;72.63;100948.80;1650054;83;25736;-79
2021/08/14 01:52:19;;;;;;;18.07;12.58;;;;;;;18.07;72.56;100950.22;1684054;83;27196;-78
2021/08/14 01:54:48;;;;;;;14.78;11.88;;;;;;;18.03;72.74;100943.58;1689914;83;25871;-78
2021/08/14 01:57:18;;;;;;;14.68;11.68;;;;;;;18.00;73.03;100948.11;1642612;83;26619;-79
2021/08/14 01:59:46;;;;;;;14.53;12.25;;;;;;;17.99;73.04;100946.44;1675609;83;25943;-78
2021/08/14 02:02:13;;;;;;;14.60;11.55;;;;;;;17.96;73.29;100945.55;1661555;83;25841;-78
2021/08/14 02:04:40;;;;;;;16.42;11.97;;;;;;;17.92;73.47;100946.52;1689852;83;28180;-78
2021/08/14 02:07:07;;;;;;;15.38;11.70;;;;;;;17.91;73.59;100940.81;1637923;83;25631;-78
2021/08/14 02:09:34;;;;;;;15.60;11.97;;;;;;;17.89;73.78;100936.14;1665973;83;25387;-79
2021/08/14 02:12:01;;;;;;;18.45;12.00;;;;;;;17.86;73.96;100935.23;1669417;83;26463;-78
2021/08/14 02:14:28;;;;;;;16.10;12.13;;;;;;;17.83;73.95;100935.70;1692627;83;25808;-78
2021/08/14 02:16:55;;;;;;;14.20;11.48;;;;;;;17.81;74.00;100931.03;1695318;83;26774;-78
2021/08/14 02:19:22;;;;;;;16.67;12.00;;;;;;;17.79;74.10;100931.79;1632392;84;25911;-78
2021/08/14 02:21:49;;;;;;;13.25;11.30;;;;;;;17.78;74.32;100927.41;1636695;83;25925;-78
2021/08/14 02:24:16;;;;;;;15.93;11.20;;;;;;;17.76;74.33;100924.09;1693996;82;25862;-78
2021/08/14 02:26:43;;;;;;;14.15;10.93;;;;;;;17.75;74.43;100922.98;1641151;84;26549;-78
2021/08/14 02:29:11;;;;;;;13.13;10.55;;;;;;;17.70;74.51;100914.17;1649021;83;27618;-79
2021/08/14 02:31:38;;;;;;;12.43;11.03;;;;;;;17.68;74.60;100910.86;1712351;81;25860;-79
2021/08/14 02:34:05;;;;;;;10.75;9.48;;;;;;;17.66;74.76;100910.26;1715093;82;25882;-78
2021/08/14 02:36:32;;;;;;;12.55;10.40;;;;;;;17.62;74.66;100906.34;1714644;82;25878;-78
2021/08/14 02:38:59;;;;;;;11.88;10.08;;;;;;;17.58;74.89;100904.59;1714087;81;25939;-78
2021/08/14 02:41:26;;;;;;;11.70;10.50;;;;;;;17.55;74.92;100907.77;1710134;82;27204;-78
2021/08/14 02:43:53;;;;;;;14.18;10.25;;;;;;;17.52;75.13;100906.02;1712605;82;25996;-78
2021/08/14 02:46:21;;;;;;;15.10;11.48;;;;;;;17.51;75.20;100909.23;1715203;81;25876;-79
2021/08/14 02:48:48;;;;;;;11.85;9.50;;;;;;;17.51;75.28;100905.73;1678493;82;25865;-78
2021/08/14 02:51:15;;;;;;;13.18;10.23;;;;;;;17.49;75.28;100899.67;1711618;81;25364;-79
2021/08/14 02:53:42;;;;;;;12.95;10.58;;;;;;;17.47;75.26;100900.43;1716698;82;27577;-78
2021/08/14 02:56:09;;;;;;;15.50;11.08;;;;;;;17.44;75.38;100896.28;1656434;81;26542;-78
2021/08/14 02:58:36;;;;;;;11.65;10.15;;;;;;;17.41;75.64;100899.95;1659939;82;25873;-78
2021/08/14 03:01:03;;;;;;;14.13;10.32;;;;;;;17.38;75.62;100900.41;1701575;82;25879;-78
2021/08/14 03:03:30;;;;;;;12.43;11.12;;;;;;;17.38;75.68;100895.83;1727619;82;25795;-78
2021/08/14 03:05:57;;;;;;;13.80;9.35;;;;;;;17.38;75.77;100892.29;1679921;82;27324;-78
2021/08/14 03:08:24;;;;;;;12.33;9.80;;;;;;;17.37;75.82;100889.27;1688071;81;26034;-78
2021/08/14 03:10:51;;;;;;;14.43;10.15;;;;;;;17.37;75.94;100893.33;1707432;82;26645;-78
2021/08/14 03:13:19;;;;;;;15.25;10.53;;;;;;;17.36;75.93;100887.11;1715223;82;25845;-79
2021/08/14 03:15:46;;;;;;;11.63;9.98;;;;;;;17.37;75.97;100886.04;1681857;81;25802;-79
2021/08/14 03:18:13;;;;;;;13.78;10.23;;;;;;;17.39;76.08;100885.28;1676732;82;27564;-78
2021/08/14 03:20:40;;;;;;;11.95;10.75;;;;;;;17.44;76.16;100887.33;1667717;84;26624;-79
2021/08/14 03:23:07;;;;;;;12.95;11.08;;;;;;;17.47;76.25;100886.89;1741889;81;25713;-79
2021/08/14 03:25:34;;;;;;;12.03;10.10;;;;;;;17.50;76.41;100890.00;1679415;83;25885;-78
2021/08/14 03:28:01;;;;;;;16.32;10.90;;;;;;;17.54;76.36;100891.20;1699165;80;26021;-78
2021/08/14 03:30:28;;;;;;;13.25;11.10;;;;;;;17.57;76.49;100894.83;1696848;81;27003;-78
2021/08/14 03:32:55;;;;;;;11.00;9.90;;;;;;;17.59;76.44;100899.49;1731364;81;25340;-79
2021/08/14 03:35:22;;;;;;;13.03;9.88;;;;;;;17.61;76.42;100895.19;1668844;81;26683;-79
2021/08/14 03:37:49;;;;;;;12.43;9.50;;;;;;;17.61;76.35;100900.61;1678869;81;25798;-78
2021/08/14 03:40:16;;;;;;;13.93;10.30;;;;;;;17.62;76.25;100897.66;1715483;81;25944;-78
2021/08/14 03:42:43;;;;;;;15.40;10.85;;;;;;;17.63;76.31;100899.34;1720317;81;27461;-78
2021/08/14 03:45:10;;;;;;;13.80;10.72;;;;;;;17.67;76.55;100905.95;1670417;81;25808;-78
2021/08/14 03:47:37;;;;;;;15.58;10.63;;;;;;;17.66;76.75;100911.06;1720409;81;25847;-78
2021/08/14 03:50:09;;;;;;;11.97;9.23;;;;;;;17.66;76.88;100910.26;1677368;83;26583;-78
2021/08/14 03:52:36;;;;;;;11.03;9.85;;;;;;;17.58;76.55;100899.70;1723150;82;26515;-79
2021/08/14 03:55:06;;;;;;;10.50;9.43;;;;;;;17.52;76.47;100901.43;1675224;82;28070;-78
2021/08/14 03:57:33;;;;;;;10.83;9.37;;;;;;;17.47;76.44;100907.20;1672571;82;25820;-78
2021/08/14 04:00:00;;;;;;;10.80;9.68;;;;;;;17.42;76.61;100901.62;1680537;82;25866;-78
2021/08/14 04:02:27;;;;;;;11.48;10.28;;;;;;;17.42;76.83;100902.97;1723695;82;25939;-79
2021/08/14 04:04:54;;;;;;;14.65;9.93;;;;;;;17.43;76.97;100900.55;1670929;82;25782;-78
2021/08/14 04:07:21;;;;;;;11.85;10.30;;;;;;;17.46;77.16;100907.72;1680774;82;27600;-79
2021/08/14 04:09:48;;;;;;;13.72;10.78;;;;;;;17.49;77.28;100909.16;1670108;82;25959;-78
2021/08/14 04:12:15;;;;;;;16.27;11.78;;;;;;;17.50;77.41;100914.38;1717625;82;26298;-78
2021/08/14 04:14:42;;;;;;;13.53;10.50;;;;;;;17.52;77.57;100909.56;1674609;82;26613;-78
2021/08/14 04:17:09;;;;;;;16.70;10.30;;;;;;;17.53;77.58;100910.39;1678180;82;26052;-78
2021/08/14 04:19:36;;;;;;;15.35;11.70;;;;;;;17.56;77.66;100912.63;1704413;81;27565;-78
2021/08/14 04:22:04;;;;;;;13.58;10.70;;;;;;;17.56;77.80;100907.22;1730472;81;25784;-78
2021/08/14 04:24:31;;;;;;;14.38;10.90;;;;;;;17.57;77.89;100907.53;1715617;81;25778;-78
2021/08/14 04:26:58;;;;;;;12.43;10.78;;;;;;;17.60;77.88;100911.97;1718379;81;25867;-79
2021/08/14 04:29:27;;;;;;;13.10;10.85;;;;;;;17.66;78.11;100910.26;1715622;81;25943;-78
2021/08/14 04:31:54;;;;;;;13.62;10.72;;;;;;;17.71;78.31;100911.22;1681826;83;27611;-78
2021/08/14 04:34:21;;;;;;;12.90;10.15;;;;;;;17.78;78.65;100917.92;1713619;81;25777;-78
2021/08/14 04:36:48;;;;;;;12.65;11.18;;;;;;;17.86;78.97;100908.13;1719660;81;25755;-78
2021/08/14 04:39:15;;;;;;;14.75;11.30;;;;;;;17.92;79.31;100904.51;1740914;81;25846;-78
2021/08/14 04:41:42;;;;;;;15.55;11.53;;;;;;;17.98;79.35;100904.98;1710434;81;25991;-78
2021/08/14 04:44:09;;;;;;;12.47;10.93;;;;;;;18.05;79.73;100908.96;1673612;80;27559;-78
2021/08/14 04:46:36;;;;;;;12.75;11.25;;;;;;;18.10;80.05;100912.63;1720542;81;25943;-79
2021/08/14 04:49:03;;;;;;;15.38;11.28;;;;;;;18.17;80.33;100913.38;1711543;83;25921;-79
2021/08/14 04:51:30;;;;;;;13.72;11.63;;;;;;;18.23;80.36;100907.56;1708880;81;25844;-79
2021/08/14 04:53:57;;;;;;;12.00;10.78;;;;;;;18.31;80.50;100914.02;1711386;81;25886;-78
2021/08/14 04:56:25;;;;;;;15.50;12.37;;;;;;;18.38;80.58;100908.81;1685907;81;27354;-78
2021/08/14 04:58:52;;;;;;;12.85;11.35;;;;;;;18.48;80.65;100910.47;1711434;81;25793;-78
2021/08/14 05:01:19;;;;;;;14.60;13.00;;;;;;;18.57;80.61;100915.56;1690280;83;25871;-78
2021/08/14 05:03:46;;;;;;;14.07;11.83;;;;;;;18.65;80.62;100919.33;1671706;82;26546;-78
2021/08/14 05:06:13;;;;;;;14.85;12.28;;;;;;;18.71;80.65;100920.55;1712821;82;25305;-78
2021/08/14 05:08:40;;;;;;;15.20;12.68;;;;;;;18.79;80.79;100919.41;1715430;82;28383;-80
2021/08/14 05:11:07;;;;;;;14.40;12.88;;;;;;;18.87;81.07;100923.97;1738464;80;26641;-80
2021/08/14 05:13:34;;;;;;;18.15;13.25;;;;;;;18.95;81.11;100922.79;1700291;82;25960;-78
2021/08/14 05:16:01;;;;;;;20.80;13.03;;;;;;;19.02;81.06;100918.92;1677415;82;25870;-79
2021/08/14 05:18:28;;;;;;;13.62;12.10;;;;;;;19.08;81.41;100917.98;1677103;82;25935;-81
2021/08/14 05:20:55;;;;;;;17.15;14.00;;;;;;;19.14;81.08;100910.25;1677052;82;28134;-78
2021/08/14 05:23:22;;;;;;;16.23;12.07;;;;;;;19.21;80.88;100913.69;1701947;82;26622;-78
2021/08/14 05:25:49;;;;;;;14.25;12.70;;;;;;;19.30;81.01;100916.05;1723056;82;25784;-80
2021/08/14 05:28:16;;;;;;;14.05;12.55;;;;;;;19.37;80.92;100912.72;1716584;82;25562;-79
2021/08/14 05:30:43;;;;;;;16.02;12.50;;;;;;;19.44;81.08;100914.80;1694572;82;25815;-82
2021/08/14 05:33:10;;;;;;;14.10;12.65;;;;;;;19.50;81.04;100913.84;1650300;82;27678;-79
2021/08/14 05:35:37;;;;;;;14.75;12.30;;;;;;;19.56;80.89;100914.24;1649951;82;25476;-78
2021/08/14 05:38:04;;;;;;;14.63;12.55;;;;;;;19.63;80.90;100914.95;1674321;82;26532;-79
2021/08/14 05:40:31;;;;;;;18.67;12.85;;;;;;;19.68;80.53;100909.61;1664698;82;25950;-79
2021/08/14 05:42:58;;;;;;;17.90;11.93;;;;;;;19.73;80.58;100908.37;1675668;82;25857;-80
2021/08/14 05:45:25;;;;;;;15.98;12.07;;;;;;;19.79;80.45;100906.05;1670990;82;27373;-80
2021/08/14 05:47:52;;;;;;;14.05;12.30;;;;;;;19.85;80.31;100912.72;1743882;81;26442;-78
2021/08/14 05:50:19;;;;;;;16.40;12.65;;;;;;;19.96;80.58;100920.55;1659538;82;26168;-80
2021/08/14 05:52:46;;;;;;;16.42;12.78;;;;;;;20.06;80.41;100899.00;1694680;81;26568;-80
2021/08/14 05:55:14;;;;;;;16.50;12.50;;;;;;;20.17;80.19;100898.13;1717178;82;25610;-79
2021/08/14 05:57:41;;;;;;;17.42;12.43;;;;;;;20.30;80.13;100904.69;1690671;82;28236;-77
2021/08/14 06:00:10;;;;;;;14.73;11.83;;;;;;;20.43;80.03;100902.20;1710366;82;25751;-80
2021/08/14 06:02:37;;;;;;;17.80;12.85;;;;;;;20.54;79.84;100908.13;1676547;81;25299;-79
2021/08/14 06:05:05;;;;;;;16.15;11.97;;;;;;;20.64;79.58;100905.05;1661564;84;25865;-80
2021/08/14 06:07:32;;;;;;;14.90;12.40;;;;;;;20.74;79.61;100901.14;1720549;82;25776;-79
2021/08/14 06:09:59;;;;;;;16.42;12.82;;;;;;;20.87;79.28;100901.91;1691802;81;28276;-79
2021/08/14 06:12:26;;;;;;;13.78;12.33;;;;;;;20.98;78.85;100908.63;1679745;82;25902;-79
2021/08/14 08:04:31;;;;;;;19.00;14.60;;;;;;;23.96;70.82;100945.00;1803960;77;25663;-79
2021/08/14 08:06:58;;;;;;;22.35;14.70;;;;;;;23.93;70.66;100944.72;1763887;79;25755;-79
2021/08/14 08:09:25;;;;;;;18.55;13.95;;;;;;;24.00;70.46;100944.74;1700838;82;27744;-78
2021/08/14 08:11:52;;;;;;;20.08;13.93;;;;;;;24.12;70.37;100941.26;1708671;79;25854;-78
2021/08/14 08:14:19;;;;;;;17.70;13.35;;;;;;;24.22;70.54;100936.38;1781211;79;25867;-78
2021/08/14 08:16:47;;;;;;;21.20;14.13;;;;;;;24.29;70.29;100934.23;1718296;81;25931;-79
2021/08/14 08:19:14;;;;;;;19.35;13.60;;;;;;;24.40;69.99;100935.34;1696579;82;25784;-78
2021/08/14 08:21:41;;;;;;;17.30;13.03;;;;;;;24.51;70.12;100931.54;1724386;80;27538;-79
2021/08/14 08:24:08;;;;;;;19.77;13.25;;;;;;;24.64;69.76;100930.73;1779982;79;25786;-79
2021/08/14 08:26:35;;;;;;;17.12;13.50;;;;;;;24.76;69.41;100929.44;1731471;79;26217;-79
2021/08/14 08:29:02;;;;;;;15.83;12.40;;;;;;;24.88;68.83;100927.79;1699167;83;25833;-79
2021/08/14 08:31:29;;;;;;;16.05;13.62;;;;;;;24.95;68.44;100931.92;1732335;79;25297;-79
2021/08/14 08:33:56;;;;;;;21.45;13.22;;;;;;;25.01;67.80;100929.45;1727853;79;27523;-79
2021/08/14 08:36:23;;;;;;;22.75;14.40;;;;;;;25.10;67.13;100926.45;1723249;80;25326;-79
2021/08/14 08:38:50;;;;;;;20.97;13.62;;;;;;;25.23;67.11;100925.86;1735550;79;25888;-79
2021/08/14 08:41:18;;;;;;;17.00;13.62;;;;;;;25.33;66.33;100923.67;1698225;82;25910;-79
2021/08/14 08:56:21;;;;;;;13.60;12.18;;;;;;;26.48;63.94;100920.30;1800704;77;25807;-78
2021/08/14 08:58:49;;;;;;;17.50;11.75;;;;;;;26.38;63.58;100928.60;1762386;80;25822;-79
2021/08/14 09:14:49;;;;;;;14.75;12.28;;;;;;;27.01;62.82;100919.97;1795457;79;25701;-85
2021/08/14 09:17:16;;;;;;;14.68;11.83;;;;;;;26.93;61.73;100924.14;1729028;80;25934;-85
2021/08/14 09:19:43;;;;;;;14.53;11.12;;;;;;;26.87;61.47;100929.41;1672988;80;27582;-83
2021/08/14 09:22:17;;;;;;;15.20;11.08;;;;;;;26.87;61.93;100929.95;1711682;80;25854;-84
2021/08/14 09:24:45;;;;;;;13.53;10.15;;;;;;;26.88;62.15;100929.66;1686710;83;26635;-84
2021/08/14 09:27:15;;;;;;;16.93;10.93;;;;;;;26.89;61.07;100927.74;1702155;81;25909;-88
2021/08/14 09:29:42;;;;;;;13.15;10.43;;;;;;;26.90;60.66;100922.53;1668182;84;25849;-82
2021/08/14 09:32:13;;;;;;;13.60;11.10;;;;;;;26.90;61.07;100921.98;1683649;82;27592;-83
2021/08/14 09:34:49;;;;;;;15.60;10.43;;;;;;;26.86;60.29;100915.97;1700801;82;26372;-82
2021/08/14 09:37:21;;;;;;;13.30;10.32;;;;;;;26.84;60.74;100916.23;1741276;80;25828;-85
2021/08/14 09:39:57;;;;;;;11.03;9.80;;;;;;;26.84;60.48;100914.85;1693693;82;25982;-83
2021/08/14 09:42:26;;;;;;;14.95;10.25;;;;;;;26.90;60.69;100913.73;1663388;81;25954;-84
2021/08/14 09:45:16;;;;;;;11.53;9.95;;;;;;;26.97;60.17;100917.50;1728343;82;27589;-80
2021/08/14 10:10:18;;;;;;;11.57;10.13;;;;;;;28.20;55.76;100900.55;1776028;79;25724;-79
2021/08/14 10:12:46;;;;;;;16.80;11.40;;;;;;;28.05;56.88;100898.00;1708802;81;26513;-80
2021/08/14 10:15:13;;;;;;;13.03;10.28;;;;;;;27.99;56.54;100899.73;1700427;81;27678;-80
2021/08/14 10:17:40;;;;;;;13.83;10.53;;;;;;;27.95;56.30;100904.96;1724496;80;25740;-79
2021/08/14 10:20:09;;;;;;;17.23;12.10;;;;;;;27.94;56.95;100895.63;1690778;83;25874;-79
2021/08/14 10:22:36;;;;;;;14.85;10.45;;;;;;;27.95;55.79;100898.66;1693109;83;25798;-79
2021/08/14 10:25:05;;;;;;;10.72;9.33;;;;;;;27.91;55.95;100898.95;1696418;82;25994;-80
2021/08/14 10:27:55;;;;;;;13.45;10.82;;;;;;;27.95;56.04;100906.92;1691215;81;27655;-80
2021/08/14 10:30:47;;;;;;;27.58;15.40;;;;;;;27.96;54.98;100902.48;1736020;80;25903;-80
2021/08/14 10:33:32;;;;;;;11.83;9.05;;;;;;;27.92;55.46;100906.95;1686903;81;25597;-81
2021/08/14 10:36:17;;;;;;;14.83;10.25;;;;;;;27.96;54.94;100909.37;1641022;84;25364;-80
2021/08/14 10:38:46;;;;;;;12.10;9.18;;;;;;;28.02;55.42;100911.52;1599481;84;26349;-80
2021/08/14 10:41:14;;;;;;;13.03;9.68;;;;;;;28.01;53.54;100903.02;1683145;84;27536;-80
2021/08/14 10:43:57;;;;;;;13.03;9.50;;;;;;;28.05;54.21;100905.44;1683348;83;25880;-80
2021/08/14 10:46:52;;;;;;;12.93;9.73;;;;;;;28.10;54.43;100901.25;1659638;84;25766;-80
2021/08/14 10:49:39;;;;;;;13.35;10.40;;;;;;;28.16;54.55;100902.23;1659626;84;25384;-80
2021/08/14 10:52:08;;;;;;;13.10;10.23;;;;;;;28.18;53.75;100898.66;1679820;84;25888;-80
2021/08/14 10:54:55;;;;;;;13.80;10.78;;;;;;;28.19;53.84;100896.15;1656070;85;28162;-80
2021/08/14 10:57:43;;;;;;;14.35;11.20;;;;;;;28.22;53.76;100895.57;1657930;84;25923;-80
2021/08/14 11:00:23;;;;;;;17.67;11.00;;;;;;;28.25;53.84;100899.09;1658393;84;26045;-80
2021/08/14 11:03:05;;;;;;;13.22;11.45;;;;;;;28.21;52.98;100898.59;1673986;84;25940;-80
2021/08/14 11:05:33;;;;;;;14.78;10.80;;;;;;;28.14;53.19;100894.03;1654881;84;25754;-80
2021/08/14 11:08:00;;;;;;;12.15;10.30;;;;;;;28.13;53.38;100897.34;1630909;84;27004;-80
2021/08/14 11:10:40;;;;;;;13.18;10.03;;;;;;;28.14;53.11;100892.66;1643492;84;25890;-80
2021/08/14 11:13:31;;;;;;;12.90;11.15;;;;;;;28.15;52.69;100895.66;1661862;84;26271;-80
2021/08/14 11:15:59;;;;;;;12.37;10.85;;;;;;;28.19;53.65;100892.56;1658281;84;25805;-80
2021/08/14 11:18:56;;;;;;;14.33;10.43;;;;;;;28.19;53.12;100894.77;1648520;84;25992;-80
2021/08/14 11:21:46;;;;;;;15.50;9.88;;;;;;;28.23;53.84;100895.81;1667809;85;27961;-80
2021/08/14 11:24:39;;;;;;;15.03;10.85;;;;;;;28.30;53.43;100894.63;1659147;85;25987;-80
2021/08/14 11:27:26;;;;;;;13.65;9.55;;;;;;;28.36;53.09;100890.13;1642117;85;26473;-79
2021/08/14 11:30:06;;;;;;;19.85;10.03;;;;;;;28.39;54.04;100891.47;1627047;85;25899;-79
2021/08/14 11:32:35;;;;;;;13.35;10.32;;;;;;;28.41;53.03;100889.23;1637596;84;26765;-79
2021/08/14 11:35:05;;;;;;;17.12;11.03;;;;;;;28.48;53.73;100888.31;1691410;84;27519;-80
2021/08/14 11:37:49;;;;;;;;;;;;;;;28.49;52.27;100893.52;1641599;85;25838;-79
2021/08/14 11:40:21;;;;;;;13.18;9.80;;;;;;;28.51;51.08;100895.97;1656075;85;25955;-80
2021/08/14 11:43:03;;;;;;;12.95;11.35;;;;;;;28.46;50.45;100889.17;1638532;85;25269;-80
2021/08/14 11:45:34;;;;;;;15.98;11.28;;;;;;;28.45;51.22;100887.52;1642553;85;26025;-80
2021/08/14 11:48:08;;;;;;;;;;;;;;;28.51;51.64;100883.56;1616354;85;28160;-80
2021/08/14 11:50:42;;;;;;;19.02;10.93;;;;;;;28.55;52.04;100885.42;1625902;85;26086;-80
2021/08/14 11:53:13;;;;;;;14.45;11.22;;;;;;;28.61;52.38;100879.33;1661676;84;25852;-80
2021/08/14 11:55:40;;;;;;;14.47;11.60;;;;;;;28.61;53.04;100885.67;1655246;84;25840;-80
2021/08/14 11:58:08;;;;;;;15.18;9.93;;;;;;;28.59;53.10;100875.47;1643342;84;25385;-80
2021/08/14 12:00:37;;;;;;;14.60;10.63;;;;;;;28.60;52.51;100874.92;1654923;84;27571;-80
2021/08/14 12:03:16;;;;;;;12.23;10.90;;;;;;;28.60;52.52;100885.94;1676473;84;25515;-80
2021/08/14 12:05:46;;;;;;;15.90;10.90;;;;;;;28.58;52.89;100885.42;1671241;84;25683;-80
2021/08/14 12:08:33;;;;;;;13.68;10.08;;;;;;;28.62;52.17;100883.16;1640039;84;26622;-80
2021/08/14 12:11:03;;;;;;;15.10;10.53;;;;;;;28.61;53.01;100874.64;1669487;84;25909;-80
2021/08/14 12:13:31;;;;;;;14.38;9.70;;;;;;;28.64;53.06;100874.02;1672203;84;28561;-80
2021/08/14 12:16:22;;;;;;;10.93;9.35;;;;;;;28.68;52.40;100874.23;1651509;84;26091;-80
2021/08/14 12:18:51;;;;;;;11.85;9.78;;;;;;;28.68;51.79;100865.41;1622405;86;25711;-80
2021/08/14 12:21:22;;;;;;;15.70;11.35;;;;;;;28.72;52.29;100871.95;1624234;85;26388;-80
2021/08/14 12:24:04;;;;;;;14.10;10.25;;;;;;;28.76;52.02;100875.75;1691621;84;25751;-80
2021/08/14 12:26:32;;;;;;;15.55;10.40;;;;;;;28.78;52.08;100872.71;1644669;85;27427;-80
2021/08/14 12:29:10;;;;;;;15.88;9.83;;;;;;;28.82;52.58;100870.44;1623697;85;25842;-80
2021/08/14 12:31:49;;;;;;;15.03;9.43;;;;;;;28.88;51.58;100878.05;1672028;84;25820;-80
2021/08/14 12:34:32;;;;;;;11.63;9.93;;;;;;;28.87;52.15;100873.67;1691832;84;25812;-80
2021/08/14 12:37:10;;;;;;;13.78;10.00;;;;;;;28.90;51.90;100875.25;1691543;83;25775;-79
2021/08/14 12:39:56;;;;;;;15.70;9.30;;;;;;;28.90;52.12;100879.94;1672701;84;28352;-80
2021/08/14 12:42:33;;;;;;;14.95;9.45;;;;;;;28.96;51.74;100880.94;1650105;84;26419;-80
2021/08/14 12:45:20;;;;;;;11.25;9.00;;;;;;;28.95;50.52;100871.05;1692083;84;25799;-80
2021/08/14 12:47:50;;;;;;;10.40;9.30;;;;;;;28.93;48.42;100878.77;1689417;84;25840;-79
2021/08/14 12:50:32;;;;;;;11.60;8.43;;;;;;;28.88;48.78;100876.67;1682290;84;25750;-80
2021/08/14 12:53:10;;;;;;;10.75;8.95;;;;;;;28.85;49.23;100880.02;1643181;85;27569;-80
2021/08/14 12:55:46;;;;;;;10.93;9.15;;;;;;;28.87;49.53;100877.80;1653970;85;25825;-80
2021/08/14 12:58:17;;;;;;;10.65;9.05;;;;;;;28.91;49.42;100876.88;1654712;85;25946;-80
2021/08/14 13:00:54;;;;;;;13.05;8.05;;;;;;;28.92;49.50;100882.66;1620850;85;25849;-80
2021/08/14 13:03:22;;;;;;;15.20;8.53;;;;;;;28.91;49.81;100869.19;1660183;85;25398;-79
2021/08/14 13:05:49;;;;;;;9.35;8.45;;;;;;;28.92;49.58;100871.63;1690517;84;28324;-80
2021/08/14 13:08:16;;;;;;;9.78;8.35;;;;;;;29.00;49.99;100868.17;1653685;84;25405;-80
2021/08/14 13:10:45;;;;;;;9.35;8.23;;;;;;;29.11;50.48;100868.81;1627431;85;25960;-80
2021/08/14 13:13:13;;;;;;;12.23;7.75;;;;;;;29.15;49.73;100862.95;1648044;84;26644;-80
2021/08/14 13:15:42;;;;;;;12.73;9.88;;;;;;;29.21;50.44;100861.79;1653051;85;25783;-80
2021/08/14 13:18:09;;;;;;;13.85;11.20;;;;;;;29.26;49.70;100855.33;1638376;85;27378;-80
2021/08/14 13:20:36;;;;;;;12.28;9.03;;;;;;;29.20;49.08;100863.45;1625139;85;26480;-79
2021/08/14 13:23:03;;;;;;;10.93;8.50;;;;;;;29.11;49.35;100870.75;1650757;85;25861;-80
2021/08/14 13:25:30;;;;;;;13.80;10.10;;;;;;;29.05;48.63;100862.31;1653476;85;25751;-80
2021/08/14 13:27:57;;;;;;;9.55;8.55;;;;;;;29.04;49.00;100856.00;1640138;86;25878;-80
2021/08/14 13:30:25;;;;;;;10.48;8.33;;;;;;;28.98;49.44;100855.80;1610785;86;27457;-80
2021/08/14 13:32:54;;;;;;;11.35;8.35;;;;;;;28.86;49.47;100862.37;1649172;84;25844;-80
2021/08/14 13:35:22;;;;;;;14.38;8.63;;;;;;;28.74;49.88;100864.78;1652208;85;26580;-80
2021/08/14 13:37:50;;;;;;;12.93;7.87;;;;;;;28.71;50.11;100864.00;1673628;85;26009;-79
2021/08/14 13:40:17;;;;;;;16.05;9.63;;;;;;;28.67;50.44;100867.09;1609446;86;26005;-80
2021/08/14 13:42:44;;;;;;;9.83;8.33;;;;;;;28.64;50.92;100865.75;1672607;84;27297;-80
2021/08/14 13:45:13;;;;;;;9.88;7.95;;;;;;;28.62;50.23;100861.10;1689887;83;25931;-80
2021/08/14 13:47:41;;;;;;;12.20;9.35;;;;;;;28.67;50.82;100861.03;1650320;85;26496;-80
2021/08/14 13:50:09;;;;;;;13.78;6.95;;;;;;;28.79;50.56;100853.10;1609002;86;25860;-79
2021/08/14 13:52:37;;;;;;;8.45;7.60;;;;;;;28.92;49.90;100852.88;1672960;84;25898;-79
2021/08/14 13:55:05;;;;;;;8.45;7.62;;;;;;;28.97;50.13;100854.18;1670531;84;27535;-80
2021/08/14 13:57:32;;;;;;;12.40;7.15;;;;;;;29.02;49.97;100852.70;1646066;84;25849;-80
2021/08/14 13:59:59;;;;;;;10.90;7.37;;;;;;;29.01;49.74;100849.70;1629535;84;25873;-79
2021/08/14 14:02:26;;;;;;;9.68;6.58;;;;;;;29.03;49.29;100852.14;1674814;84;25320;-79